Time;durP1;ratioP1;P1;durP2;ratioP2;P2;SDS_P1;SDS_P2;PMS_P1;PMS_P2;Temp;Humidity;BMP_temperature;BMP_pressure;BME280_temperature;BME280_humidity;BME280_pressure;Samples;Min_cycle;Max_cycle;Signal;HPM_P1;HPM_P2
2021/01/05 00:00:24;;;;;;;165.70;44.00;;;;;;;2.48;100.00;98491.25;2104828;28;20217;-74
2021/01/05 00:01:25;;;;;;;175.77;44.92;;;;;;;2.53;100.00;98488.66;2096291;28;20751;-74
2021/01/05 00:02:26;;;;;;;148.20;44.40;;;;;;;2.50;100.00;98492.56;2098567;28;20222;-73
2021/01/05 00:03:27;;;;;;;158.40;44.17;;;;;;;2.45;100.00;98487.31;2104944;28;20253;-73
2021/01/05 00:04:33;;;;;;;182.50;45.58;;;;;;;2.49;100.00;98492.84;2106167;28;20458;-74
2021/01/05 00:05:34;;;;;;;142.98;43.97;;;;;;;2.46;100.00;98488.09;2104904;28;20228;-74
2021/01/05 00:06:35;;;;;;;159.75;44.55;;;;;;;2.47;100.00;98493.09;2096504;28;20228;-73
2021/01/05 00:07:36;;;;;;;172.33;43.77;;;;;;;2.53;100.00;98489.44;2096703;28;20226;-73
2021/01/05 00:08:36;;;;;;;178.40;47.58;;;;;;;2.55;100.00;98486.53;2096600;28;20688;-74
2021/01/05 00:09:38;;;;;;;146.77;47.10;;;;;;;2.44;100.00;98477.81;2105630;28;20639;-73
2021/01/05 00:10:39;;;;;;;156.15;43.38;;;;;;;2.50;100.00;98491.78;2097928;28;20578;-74
2021/01/05 00:11:55;;;;;;;141.83;44.87;;;;;;;2.52;100.00;98487.84;2096694;28;20222;-74
2021/01/05 00:12:56;;;;;;;153.80;43.53;;;;;;;2.55;100.00;98483.91;2105232;28;20306;-73
2021/01/05 00:13:58;;;;;;;158.77;43.30;;;;;;;2.52;100.00;98481.81;2106107;28;20233;-74
2021/01/05 00:14:58;;;;;;;160.85;44.28;;;;;;;2.45;100.00;98484.66;2106164;28;20214;-73
2021/01/05 00:16:00;;;;;;;146.67;41.03;;;;;;;2.38;100.00;98472.78;2105270;28;20304;-73
2021/01/05 00:17:01;;;;;;;147.70;43.05;;;;;;;2.37;100.00;98464.09;2096344;28;20226;-74
2021/01/05 00:18:02;;;;;;;147.27;43.80;;;;;;;2.39;100.00;98469.88;2097489;28;20305;-74
2021/01/05 00:19:03;;;;;;;152.40;44.47;;;;;;;2.41;100.00;98469.63;2097640;28;20256;-73
2021/01/05 00:20:09;;;;;;;143.33;44.40;;;;;;;2.45;100.00;98482.03;2097867;28;20226;-73
2021/01/05 00:21:10;;;;;;;169.93;43.20;;;;;;;2.42;100.00;98482.53;2103798;28;20283;-73
2021/01/05 00:22:11;;;;;;;135.60;42.30;;;;;;;2.33;100.00;98478.00;2105245;28;20330;-73
2021/01/05 00:23:12;;;;;;;166.73;45.80;;;;;;;2.37;100.00;98476.47;2106205;28;20286;-73
2021/01/05 00:24:13;;;;;;;153.85;44.30;;;;;;;2.36;100.00;98480.16;2106286;28;20259;-74
2021/01/05 00:25:15;;;;;;;151.40;45.55;;;;;;;2.38;100.00;98486.72;2106100;28;20256;-73
2021/01/05 00:26:17;;;;;;;152.38;43.70;;;;;;;2.41;100.00;98477.53;2105235;28;20246;-73
2021/01/05 00:27:17;;;;;;;151.50;44.33;;;;;;;2.42;100.00;98489.63;2096893;28;20252;-73
2021/01/05 00:28:18;;;;;;;145.23;44.10;;;;;;;2.43;100.00;98483.31;2105272;28;20225;-74
2021/01/05 00:29:20;;;;;;;154.23;46.22;;;;;;;2.44;100.00;98485.72;2106079;28;20741;-74
2021/01/05 00:30:24;;;;;;;151.10;43.25;;;;;;;2.44;100.00;98479.66;2106224;28;20246;-74
2021/01/05 00:31:25;;;;;;;155.02;44.13;;;;;;;2.38;100.00;98480.69;2096449;28;20214;-74
2021/01/05 00:32:26;;;;;;;150.50;43.10;;;;;;;2.42;100.00;98481.75;2097054;28;20695;-75
2021/01/05 00:33:27;;;;;;;165.63;45.75;;;;;;;2.39;100.00;98477.00;2096572;28;20607;-75
2021/01/05 00:34:28;;;;;;;153.67;42.73;;;;;;;2.40;100.00;98483.84;2097716;28;20218;-76
2021/01/05 00:35:31;;;;;;;152.25;43.83;;;;;;;2.32;100.00;98481.69;2096582;28;20610;-75
2021/01/05 00:36:32;;;;;;;146.60;44.00;;;;;;;2.30;100.00;98476.69;2097629;28;20241;-76
2021/01/05 00:37:33;;;;;;;155.75;40.78;;;;;;;2.28;100.00;98472.75;2096714;28;20691;-75
2021/01/05 00:38:34;;;;;;;153.33;43.23;;;;;;;2.31;100.00;98477.47;2097694;28;20584;-76
2021/01/05 00:39:34;;;;;;;152.35;42.03;;;;;;;2.37;100.00;98479.88;2097655;28;20673;-76
2021/01/05 00:40:36;;;;;;;152.23;43.97;;;;;;;2.42;100.00;98477.25;2105062;28;20664;-76
2021/01/05 00:41:36;;;;;;;122.88;42.15;;;;;;;2.40;100.00;98475.94;2104830;28;20281;-76
2021/01/05 00:42:38;;;;;;;133.07;42.80;;;;;;;2.37;100.00;98487.00;2105960;28;20237;-76
2021/01/05 00:43:39;;;;;;;140.63;41.80;;;;;;;2.35;100.00;98483.84;2096562;28;20232;-76
2021/01/05 00:44:42;;;;;;;145.10;44.15;;;;;;;2.29;100.00;98482.22;2096846;28;20226;-76
2021/01/05 00:45:42;;;;;;;119.80;41.97;;;;;;;2.30;100.00;98481.97;2097614;28;20241;-76
2021/01/05 00:46:48;;;;;;;129.25;41.88;;;;;;;2.34;100.00;98479.59;2096733;28;20218;-76
2021/01/05 00:47:48;;;;;;;106.10;41.30;;;;;;;2.43;100.00;98481.50;2092246;28;20297;-75
2021/01/05 00:48:50;;;;;;;104.90;39.77;;;;;;;2.41;100.00;98472.25;2105059;28;20225;-76
2021/01/05 00:49:51;;;;;;;112.68;40.95;;;;;;;2.49;100.00;98483.09;2104949;28;20225;-77
2021/01/05 00:50:52;;;;;;;93.80;39.40;;;;;;;2.54;100.00;98477.06;2096155;28;20847;-78
2021/01/05 00:51:53;;;;;;;93.82;40.72;;;;;;;2.52;100.00;98476.53;2096538;28;20321;-77
2021/01/05 00:52:54;;;;;;;97.80;40.97;;;;;;;2.49;100.00;98474.41;2096736;28;20234;-77
2021/01/05 00:53:55;;;;;;;93.88;39.53;;;;;;;2.41;100.00;98475.69;2096856;28;20233;-77
2021/01/05 00:54:56;;;;;;;106.37;40.97;;;;;;;2.37;100.00;98463.31;2095203;28;20249;-77
2021/01/05 00:55:57;;;;;;;105.40;40.58;;;;;;;2.43;100.00;98470.16;2096741;28;20257;-77
2021/01/05 00:57:00;;;;;;;102.63;44.10;;;;;;;2.43;100.00;98473.59;2095995;28;20222;-77
2021/01/05 00:58:01;;;;;;;99.93;42.53;;;;;;;2.40;100.00;98478.56;2096829;28;20316;-77
2021/01/05 00:59:03;;;;;;;97.97;42.35;;;;;;;2.40;100.00;98474.09;2105131;28;20233;-77
2021/01/05 01:00:08;;;;;;;112.15;42.47;;;;;;;2.39;100.00;98467.25;2098508;28;20225;-78
2021/01/05 01:01:10;;;;;;;99.32;44.42;;;;;;;2.37;100.00;98465.94;2103396;28;20232;-77
2021/01/05 01:02:12;;;;;;;107.35;44.00;;;;;;;2.44;100.00;98475.19;2105655;28;20229;-77
2021/01/05 01:03:13;;;;;;;96.93;42.45;;;;;;;2.40;100.00;98466.22;2096401;28;20218;-77
2021/01/05 01:04:14;;;;;;;89.05;40.42;;;;;;;2.38;100.00;98449.09;2096790;28;20225;-77
2021/01/05 01:05:16;;;;;;;97.35;44.08;;;;;;;2.47;100.00;98465.97;2086752;28;20271;-77
2021/01/05 01:06:18;;;;;;;100.05;44.25;;;;;;;2.42;100.00;98458.84;2088430;28;20222;-77
2021/01/05 01:07:19;;;;;;;106.57;45.85;;;;;;;2.39;100.00;98454.09;2102010;28;20232;-78
2021/01/05 01:08:20;;;;;;;98.28;44.97;;;;;;;2.49;100.00;98464.66;2104937;28;20217;-78
2021/01/05 01:09:25;;;;;;;92.88;41.83;;;;;;;2.48;100.00;98460.44;2096622;28;20305;-77
2021/01/05 01:10:26;;;;;;;105.95;45.13;;;;;;;2.43;100.00;98457.00;2096498;28;20226;-77
2021/01/05 01:11:28;;;;;;;105.28;46.58;;;;;;;2.48;100.00;98467.56;2096533;28;20218;-78
2021/01/05 01:12:30;;;;;;;101.35;45.80;;;;;;;2.42;100.00;98460.69;2095951;28;20632;-78
2021/01/05 01:13:34;;;;;;;126.53;50.33;;;;;;;2.50;100.00;98462.81;2096841;28;20698;-77
2021/01/05 01:14:35;;;;;;;128.38;53.50;;;;;;;2.47;100.00;98463.34;2096450;28;20701;-78
2021/01/05 01:15:37;;;;;;;154.00;55.33;;;;;;;2.54;100.00;98463.91;2096229;28;20614;-77
2021/01/05 01:16:38;;;;;;;143.73;57.67;;;;;;;2.43;100.00;98449.09;2089712;28;20223;-77
2021/01/05 01:17:40;;;;;;;161.60;59.27;;;;;;;2.45;100.00;98455.72;2103349;28;20226;-77
2021/01/05 01:18:40;;;;;;;142.45;60.50;;;;;;;2.44;100.00;98462.03;2097412;28;20222;-78
2021/01/05 01:19:42;;;;;;;142.33;55.37;;;;;;;2.41;100.00;98461.72;2096431;28;20719;-77
2021/01/05 01:20:43;;;;;;;138.48;57.15;;;;;;;2.39;100.00;98455.94;2096394;28;20303;-78
2021/01/05 01:21:49;;;;;;;93.03;46.08;;;;;;;2.47;100.00;98455.44;2094326;28;20245;-77
2021/01/05 01:22:50;;;;;;;105.68;50.63;;;;;;;2.50;100.00;98449.66;2095645;28;20229;-77
2021/01/05 01:23:53;;;;;;;137.65;57.58;;;;;;;2.42;100.00;98444.88;2096163;28;20218;-78
2021/01/05 01:24:54;;;;;;;139.85;58.55;;;;;;;2.30;100.00;98426.69;2096399;28;20648;-77
2021/01/05 01:26:03;;;;;;;185.68;69.93;;;;;;;2.44;100.00;98458.59;2097519;28;20268;-77
2021/01/05 01:27:05;;;;;;;250.05;90.75;;;;;;;2.40;100.00;98447.78;2095421;28;20222;-78
2021/01/05 01:28:07;;;;;;;224.37;90.57;;;;;;;2.36;100.00;98454.63;2096571;28;20233;-77
2021/01/05 01:29:15;;;;;;;152.68;65.55;;;;;;;2.32;100.00;98445.63;2090224;28;20479;-77
2021/01/05 01:30:18;;;;;;;125.38;59.95;;;;;;;2.36;100.00;98451.19;2088586;28;20294;-77
2021/01/05 01:31:29;;;;;;;112.32;55.20;;;;;;;2.40;100.00;98450.41;2104828;28;20271;-76
2021/01/05 01:32:30;;;;;;;124.93;57.17;;;;;;;2.32;100.00;98434.31;2104385;28;20564;-76
2021/01/05 01:33:31;;;;;;;134.35;59.47;;;;;;;2.30;100.00;98444.31;2096401;28;20247;-76
2021/01/05 01:34:38;;;;;;;137.57;61.55;;;;;;;2.34;100.00;98445.38;2097333;28;20225;-76
2021/01/05 01:35:39;;;;;;;129.82;60.08;;;;;;;2.34;100.00;98437.47;2104668;28;20691;-76
2021/01/05 01:36:43;;;;;;;130.60;59.00;;;;;;;2.29;100.00;98434.84;2096421;28;20252;-76
2021/01/05 01:37:44;;;;;;;111.45;53.00;;;;;;;2.32;100.00;98442.22;2104720;28;20566;-76
2021/01/05 01:38:46;;;;;;;115.00;55.00;;;;;;;2.30;100.00;98439.06;2104650;28;20219;-76
2021/01/05 01:39:48;;;;;;;90.45;50.30;;;;;;;2.45;100.00;98433.84;2096333;28;20242;-76
2021/01/05 01:40:53;;;;;;;96.03;50.67;;;;;;;2.42;100.00;98427.25;2089298;28;20317;-76
2021/01/05 01:42:05;;;;;;;87.50;46.95;;;;;;;2.40;100.00;98431.19;2096246;28;20332;-76
2021/01/05 01:43:07;;;;;;;95.95;50.00;;;;;;;2.41;100.00;98432.78;2096286;28;20260;-76
2021/01/05 01:44:08;;;;;;;101.70;50.05;;;;;;;2.37;100.00;98429.88;2095936;28;20275;-76
2021/01/05 01:45:22;;;;;;;94.05;46.60;;;;;;;2.43;100.00;98425.41;2087044;28;20792;-76
2021/01/05 01:46:24;;;;;;;89.78;47.72;;;;;;;2.42;100.00;98426.44;2097798;28;20256;-76
2021/01/05 01:47:29;;;;;;;80.68;45.20;;;;;;;2.42;100.00;98427.25;2095773;28;20226;-76
2021/01/05 01:48:33;;;;;;;79.80;45.25;;;;;;;2.38;100.00;98418.28;2097024;28;20226;-76
2021/01/05 01:49:34;;;;;;;81.90;44.83;;;;;;;2.38;100.00;98422.78;2104693;28;20304;-75
2021/01/05 01:50:36;;;;;;;88.75;44.78;;;;;;;2.39;100.00;98424.34;2088185;28;20218;-76
2021/01/05 01:51:40;;;;;;;81.88;45.15;;;;;;;2.38;100.00;98417.50;2088690;28;20249;-76
2021/01/05 01:53:04;;;;;;;88.20;43.97;;;;;;;2.39;100.00;98416.44;2097704;28;20239;-76
2021/01/05 01:54:39;;;;;;;83.55;44.05;;;;;;;2.41;100.00;98415.13;2095516;28;20230;-75
2021/01/05 01:55:51;;;;;;;79.50;42.80;;;;;;;2.38;100.00;98413.03;2106925;28;20220;-75
2021/01/05 01:57:30;;;;;;;78.88;43.85;;;;;;;2.41;100.00;98412.50;2095693;28;20248;-75
2021/01/05 01:58:53;;;;;;;76.85;44.35;;;;;;;2.40;100.00;98407.50;2092327;28;20226;-76
2021/01/05 02:00:14;;;;;;;80.35;43.40;;;;;;;2.42;100.00;98413.28;2099009;28;20220;-75
2021/01/05 02:01:22;;;;;;;83.53;45.38;;;;;;;2.41;100.00;98411.72;2103047;28;20225;-76
2021/01/05 02:02:37;;;;;;;82.70;44.67;;;;;;;2.38;100.00;98412.25;2104868;28;20229;-76
2021/01/05 02:03:58;;;;;;;80.38;44.47;;;;;;;2.33;100.00;98406.94;2105025;28;20220;-75
2021/01/05 02:05:07;;;;;;;74.70;43.58;;;;;;;2.39;100.00;98411.19;2104085;28;20225;-76
2021/01/05 02:06:23;;;;;;;73.50;45.13;;;;;;;2.36;100.00;98409.09;2089232;28;20218;-76
2021/01/05 02:07:47;;;;;;;83.43;43.33;;;;;;;2.31;100.00;98417.75;2090200;28;20235;-76
2021/01/05 02:09:08;;;;;;;79.75;43.38;;;;;;;2.29;100.00;98405.91;2097421;28;20221;-75
2021/01/05 02:10:21;;;;;;;75.97;43.58;;;;;;;2.31;100.00;98406.41;2091129;28;20230;-76
2021/01/05 02:11:36;;;;;;;75.95;42.35;;;;;;;2.35;100.00;98405.66;2095751;28;20218;-75
2021/01/05 02:12:41;;;;;;;73.65;41.05;;;;;;;2.36;100.00;98396.72;2093656;28;20308;-77
2021/01/05 02:14:03;;;;;;;75.07;41.47;;;;;;;2.41;100.00;98409.88;2088494;28;20720;-77
2021/01/05 02:15:19;;;;;;;76.80;41.90;;;;;;;2.40;100.00;98395.13;2100784;28;20229;-77
2021/01/05 02:16:26;;;;;;;72.43;40.28;;;;;;;2.35;100.00;98402.25;2095840;28;20701;-76
2021/01/05 02:18:00;;;;;;;73.72;42.17;;;;;;;2.34;100.00;98396.16;2096158;28;20221;-77
2021/01/05 02:19:04;;;;;;;67.30;41.00;;;;;;;2.33;100.00;98401.69;2099629;28;20234;-77
2021/01/05 02:20:10;;;;;;;72.53;41.67;;;;;;;2.30;100.00;98397.72;2096519;28;20713;-77
2021/01/05 02:21:16;;;;;;;69.68;39.92;;;;;;;2.30;100.00;98399.56;2088120;28;20231;-77
2021/01/05 02:22:28;;;;;;;75.15;42.70;;;;;;;2.32;100.00;98400.09;2088871;28;20233;-76
2021/01/05 02:23:45;;;;;;;72.45;41.83;;;;;;;2.30;100.00;98392.47;2096708;28;20232;-77
2021/01/05 02:24:53;;;;;;;70.68;41.33;;;;;;;2.30;100.00;98400.38;2098114;28;20772;-76
2021/01/05 02:26:00;;;;;;;66.78;40.85;;;;;;;2.22;100.00;98379.81;2096368;28;20704;-77
2021/01/05 02:27:06;;;;;;;66.53;41.72;;;;;;;2.28;100.00;98391.94;2097227;28;20581;-76
2021/01/05 02:28:09;;;;;;;67.07;41.08;;;;;;;2.29;100.00;98388.25;2087877;28;20234;-77
2021/01/05 02:29:14;;;;;;;69.10;40.40;;;;;;;2.28;100.00;98389.31;2088095;28;20237;-76
2021/01/05 02:30:20;;;;;;;70.38;40.83;;;;;;;2.23;100.00;98373.50;2096182;28;20657;-77
2021/01/05 02:31:29;;;;;;;65.05;40.85;;;;;;;2.34;100.00;98382.19;2096404;28;20218;-76
2021/01/05 02:32:39;;;;;;;68.88;41.50;;;;;;;2.20;100.00;98360.84;2096764;28;20672;-76
2021/01/05 02:33:52;;;;;;;64.65;43.08;;;;;;;2.34;100.00;98379.56;2097223;28;20226;-76
2021/01/05 02:35:04;;;;;;;66.60;41.75;;;;;;;2.29;100.00;98379.56;2104782;28;20232;-76
2021/01/05 02:36:41;;;;;;;66.55;42.10;;;;;;;2.27;100.00;98382.47;2108313;28;20216;-76
2021/01/05 02:38:09;;;;;;;64.38;42.67;;;;;;;2.27;100.00;98371.94;2104577;28;20221;-76
2021/01/05 02:39:54;;;;;;;68.00;42.53;;;;;;;2.25;100.00;98366.91;2098298;28;20226;-77
2021/01/05 02:41:24;;;;;;;66.03;41.58;;;;;;;2.25;100.00;98376.66;2103094;28;20221;-78
2021/01/05 02:43:19;;;;;;;70.20;40.33;;;;;;;2.22;100.00;98374.53;2095990;28;20316;-77
2021/01/05 02:44:40;;;;;;;58.10;38.22;;;;;;;2.30;100.00;98368.00;2080395;28;20645;-77
2021/01/05 02:46:09;;;;;;;62.17;41.55;;;;;;;2.26;100.00;98373.00;2104654;28;20233;-76
2021/01/05 02:48:04;;;;;;;62.78;40.40;;;;;;;2.25;100.00;98361.66;2087290;28;20272;-76
2021/01/05 02:49:33;;;;;;;58.80;39.70;;;;;;;2.18;100.00;98368.22;2095636;28;20226;-76
2021/01/05 02:51:23;;;;;;;64.88;41.58;;;;;;;2.18;100.00;98358.50;2096304;28;20221;-77
2021/01/05 02:53:13;;;;;;;66.93;41.80;;;;;;;2.29;100.00;98356.69;2104178;28;20229;-77
2021/01/05 02:55:23;;;;;;;65.95;40.67;;;;;;;2.25;100.00;98361.66;2104315;28;20328;-76
2021/01/05 02:57:22;;;;;;;59.83;40.08;;;;;;;2.22;100.00;98351.66;2069849;28;20237;-77
2021/01/05 02:59:24;;;;;;;54.63;37.38;;;;;;;2.17;100.00;98348.19;2069956;28;20220;-76
2021/01/05 03:01:12;;;;;;;61.78;37.95;;;;;;;2.20;100.00;98348.50;2066887;28;20220;-76
2021/01/05 03:02:55;;;;;;;52.58;38.90;;;;;;;2.22;100.00;98351.66;2090391;28;20225;-76
2021/01/05 03:04:15;;;;;;;57.72;38.83;;;;;;;2.24;100.00;98339.00;2104410;28;20217;-76
2021/01/05 03:05:44;;;;;;;57.05;37.45;;;;;;;2.22;100.00;98346.38;2088041;28;20286;-76
2021/01/05 03:07:07;;;;;;;55.20;38.75;;;;;;;2.22;100.00;98329.81;2098114;28;20226;-76
2021/01/05 03:08:28;;;;;;;54.55;37.58;;;;;;;2.21;100.00;98325.59;2097600;28;20229;-77
2021/01/05 03:10:11;;;;;;;55.45;38.17;;;;;;;2.20;100.00;98326.66;2098072;28;20221;-76
2021/01/05 03:11:36;;;;;;;62.50;39.88;;;;;;;2.21;100.00;98315.84;2105880;28;20224;-76
2021/01/05 03:13:06;;;;;;;56.05;38.08;;;;;;;2.19;100.00;98317.97;2106299;28;20221;-76
2021/01/05 03:14:32;;;;;;;52.38;37.85;;;;;;;2.23;100.00;98321.66;2106182;28;20225;-76
2021/01/05 03:15:55;;;;;;;56.00;38.03;;;;;;;2.22;100.00;98324.53;2105879;28;20261;-76
2021/01/05 03:17:21;;;;;;;51.25;36.42;;;;;;;2.21;100.00;98322.97;2106190;28;20659;-76
2021/01/05 03:18:47;;;;;;;51.92;37.28;;;;;;;2.20;100.00;98322.19;2097573;28;20221;-76
2021/01/05 03:20:11;;;;;;;51.70;36.90;;;;;;;2.20;100.00;98324.81;2097973;28;20225;-76
2021/01/05 03:21:34;;;;;;;53.22;36.63;;;;;;;2.21;100.00;98322.97;2097637;28;20226;-76
2021/01/05 03:23:14;;;;;;;49.88;35.65;;;;;;;2.24;100.00;98323.22;2069520;28;20615;-76
2021/01/05 03:24:34;;;;;;;53.58;37.60;;;;;;;2.13;100.00;98310.31;2070353;28;20216;-76
2021/01/05 03:25:54;;;;;;;53.47;37.15;;;;;;;2.18;100.00;98311.13;2072006;28;20598;-76
2021/01/05 03:27:14;;;;;;;49.85;36.95;;;;;;;2.12;100.00;98311.38;2070202;28;20606;-76
2021/01/05 03:28:34;;;;;;;55.38;38.65;;;;;;;2.08;100.00;98311.06;2075504;28;20216;-76
2021/01/05 03:29:56;;;;;;;55.40;35.83;;;;;;;2.11;100.00;98313.22;2097501;28;20218;-75
2021/01/05 03:31:19;;;;;;;62.80;38.25;;;;;;;2.12;100.00;98306.91;2098624;28;20226;-76
2021/01/05 03:32:39;;;;;;;49.92;35.03;;;;;;;2.09;100.00;98304.78;2105813;28;20225;-76
2021/01/05 03:34:01;;;;;;;56.63;35.72;;;;;;;2.09;100.00;98304.78;2097705;28;20213;-76
2021/01/05 03:35:20;;;;;;;51.78;35.10;;;;;;;2.15;100.00;98301.09;2106291;28;20292;-76
2021/01/05 03:36:40;;;;;;;52.47;36.35;;;;;;;2.17;100.00;98300.84;2106037;28;20245;-76
2021/01/05 03:37:59;;;;;;;52.35;34.92;;;;;;;2.16;100.00;98300.03;2099872;28;20583;-76
2021/01/05 03:39:19;;;;;;;51.50;34.97;;;;;;;2.13;100.00;98299.78;2098308;28;20218;-76
2021/01/05 03:40:38;;;;;;;49.67;35.05;;;;;;;2.10;100.00;98293.22;2097427;28;20739;-76
2021/01/05 03:41:58;;;;;;;49.40;34.80;;;;;;;2.10;100.00;98287.94;2104603;28;20225;-76
2021/01/05 03:43:17;;;;;;;52.78;36.80;;;;;;;2.16;100.00;98300.03;2105407;28;20711;-76
2021/01/05 03:44:37;;;;;;;51.47;34.80;;;;;;;2.17;100.00;98291.13;2097378;28;20225;-76
2021/01/05 03:45:59;;;;;;;52.15;34.42;;;;;;;2.17;100.00;98291.13;2097655;28;20230;-76
2021/01/05 03:47:18;;;;;;;57.47;35.58;;;;;;;2.13;100.00;98287.41;2106265;28;20241;-76
2021/01/05 03:48:38;;;;;;;59.65;36.53;;;;;;;2.12;100.00;98290.31;2097446;28;20218;-76
2021/01/05 03:49:57;;;;;;;50.72;36.70;;;;;;;2.12;100.00;98285.84;2105965;28;20233;-76
2021/01/05 03:51:17;;;;;;;53.42;35.60;;;;;;;2.16;100.00;98286.09;2106072;28;20228;-76
2021/01/05 03:52:36;;;;;;;57.40;36.60;;;;;;;2.17;100.00;98291.13;2106119;28;20221;-76
2021/01/05 03:53:56;;;;;;;56.83;35.92;;;;;;;2.16;100.00;98284.25;2105062;28;20217;-76
2021/01/05 03:55:16;;;;;;;49.05;34.85;;;;;;;2.16;100.00;98273.72;2097477;28;20242;-76
2021/01/05 03:56:43;;;;;;;47.50;34.95;;;;;;;2.19;100.00;98275.88;2089382;28;20665;-76
2021/01/05 03:58:03;;;;;;;51.00;34.65;;;;;;;2.16;100.00;98279.00;2106046;28;20300;-77
2021/01/05 03:59:22;;;;;;;56.22;35.58;;;;;;;2.17;100.00;98280.59;2105752;28;20233;-76
2021/01/05 04:00:41;;;;;;;51.60;34.22;;;;;;;2.11;100.00;98270.31;2097410;28;20229;-76
2021/01/05 04:01:51;;;;;;;53.08;34.58;;;;;;;2.25;100.00;98284.53;2097219;28;20221;-76
2021/01/05 04:02:53;;;;;;;48.25;34.70;;;;;;;2.29;100.00;98282.97;2097043;28;20229;-76
2021/01/05 04:03:54;;;;;;;50.00;35.20;;;;;;;2.25;100.00;98274.81;2096642;28;20229;-76
2021/01/05 04:04:55;;;;;;;49.50;35.17;;;;;;;2.25;100.00;98276.66;2097209;28;20222;-76
2021/01/05 04:05:56;;;;;;;47.70;34.93;;;;;;;2.19;100.00;98272.44;2104643;28;20228;-76
2021/01/05 04:06:56;;;;;;;46.15;34.47;;;;;;;2.16;100.00;98278.22;2105393;28;20226;-77
2021/01/05 04:07:58;;;;;;;46.50;34.00;;;;;;;2.18;100.00;98276.91;2105647;28;20217;-76
2021/01/05 04:08:58;;;;;;;50.33;34.10;;;;;;;2.17;100.00;98274.53;2105130;28;20221;-76
2021/01/05 04:10:00;;;;;;;54.17;33.97;;;;;;;2.09;100.00;98262.69;2097127;28;20257;-76
2021/01/05 04:11:00;;;;;;;47.60;32.53;;;;;;;2.19;100.00;98270.59;2097005;28;20226;-77
2021/01/05 04:12:01;;;;;;;47.10;33.30;;;;;;;2.19;100.00;98275.06;2096428;28;20305;-76
2021/01/05 04:13:02;;;;;;;42.92;32.53;;;;;;;2.19;100.00;98270.59;2096174;28;20229;-76
2021/01/05 04:14:04;;;;;;;45.87;34.43;;;;;;;2.22;100.00;98277.97;2097052;28;20237;-76
2021/01/05 04:15:07;;;;;;;45.47;33.60;;;;;;;2.19;100.00;98257.44;2105532;28;20225;-76
2021/01/05 04:16:08;;;;;;;43.33;31.88;;;;;;;2.26;100.00;98273.00;2105709;28;20306;-76
2021/01/05 04:17:10;;;;;;;45.85;32.45;;;;;;;2.21;100.00;98260.59;2105821;28;20722;-76
2021/01/05 04:18:11;;;;;;;45.97;31.65;;;;;;;2.26;100.00;98273.00;2105473;28;20233;-76
2021/01/05 04:19:12;;;;;;;40.22;31.10;;;;;;;2.23;100.00;98263.75;2104961;28;20674;-76
2021/01/05 04:20:14;;;;;;;39.27;29.87;;;;;;;2.36;100.00;98273.00;2105318;28;20300;-76
2021/01/05 04:21:15;;;;;;;37.28;29.52;;;;;;;2.31;100.00;98265.09;2106230;28;20342;-76
2021/01/05 04:22:16;;;;;;;43.57;30.20;;;;;;;2.33;100.00;98267.44;2105346;28;20319;-76
2021/01/05 04:23:17;;;;;;;38.83;29.55;;;;;;;2.33;100.00;98268.25;2105484;28;20571;-76
2021/01/05 04:24:19;;;;;;;37.43;29.83;;;;;;;2.31;100.00;98264.28;2106257;28;20221;-76
2021/01/05 04:25:20;;;;;;;39.30;31.40;;;;;;;2.21;100.00;98263.22;2106278;28;20229;-76
2021/01/05 04:26:21;;;;;;;46.13;32.60;;;;;;;2.24;100.00;98267.16;2105928;28;20257;-76
2021/01/05 04:27:22;;;;;;;43.55;30.77;;;;;;;2.21;100.00;98265.06;2097530;28;20679;-76
2021/01/05 04:28:23;;;;;;;43.57;31.30;;;;;;;2.25;100.00;98271.38;2096514;28;20572;-76
2021/01/05 04:29:24;;;;;;;39.20;30.92;;;;;;;2.24;100.00;98261.91;2088683;28;20265;-76
2021/01/05 04:30:27;;;;;;;39.90;31.13;;;;;;;2.23;100.00;98261.13;2088712;28;20257;-76
2021/01/05 04:31:28;;;;;;;39.75;30.77;;;;;;;2.21;100.00;98265.88;2089113;28;20222;-76
2021/01/05 04:32:30;;;;;;;42.33;31.77;;;;;;;2.24;100.00;98262.69;2096164;28;20256;-76
2021/01/05 04:33:31;;;;;;;45.15;31.83;;;;;;;2.21;100.00;98262.44;2097755;28;20221;-76
2021/01/05 04:34:32;;;;;;;45.53;32.03;;;;;;;2.23;100.00;98262.97;2096926;28;20301;-76
2021/01/05 04:35:33;;;;;;;38.33;30.35;;;;;;;2.31;100.00;98267.72;2096834;28;20268;-76
2021/01/05 04:36:34;;;;;;;39.80;30.87;;;;;;;2.31;100.00;98269.56;2097683;28;20272;-76
2021/01/05 04:37:35;;;;;;;45.80;31.05;;;;;;;2.31;100.00;98261.66;2096832;28;20233;-76
2021/01/05 04:38:36;;;;;;;42.13;30.80;;;;;;;2.26;100.00;98263.25;2095848;28;20270;-76
2021/01/05 04:39:37;;;;;;;41.17;31.40;;;;;;;2.25;100.00;98260.84;2096489;28;20687;-76
2021/01/05 04:40:42;;;;;;;36.83;29.87;;;;;;;2.26;100.00;98260.63;2096841;28;20265;-76
2021/01/05 04:41:46;;;;;;;39.95;31.25;;;;;;;2.27;100.00;98258.78;2096947;28;20210;-77
2021/01/05 04:42:48;;;;;;;39.78;30.73;;;;;;;2.25;100.00;98258.22;2097603;28;20305;-76
2021/01/05 04:43:54;;;;;;;29.58;26.10;;;;;;;2.29;100.00;98263.78;2097619;28;20214;-77
2021/01/05 04:44:59;;;;;;;34.97;27.33;;;;;;;2.26;100.00;98259.84;2097170;28;20252;-77
2021/01/05 04:46:10;;;;;;;29.35;26.23;;;;;;;2.28;100.00;98254.31;2096897;28;20260;-76
2021/01/05 04:47:18;;;;;;;29.92;26.77;;;;;;;2.26;100.00;98258.00;2096712;28;20280;-76
2021/01/05 04:48:41;;;;;;;32.00;26.58;;;;;;;2.28;100.00;98254.31;2096776;28;20280;-77
2021/01/05 04:50:10;;;;;;;29.60;25.58;;;;;;;2.32;100.00;98260.59;2100745;28;20305;-76
2021/01/05 04:51:17;;;;;;;29.30;26.25;;;;;;;2.30;100.00;98260.09;2104068;28;20225;-76
2021/01/05 04:52:23;;;;;;;28.83;25.83;;;;;;;2.43;100.00;98262.19;2105296;28;20225;-76
2021/01/05 04:53:26;;;;;;;28.48;25.45;;;;;;;2.43;100.00;98267.44;2104787;28;20221;-76
2021/01/05 04:54:31;;;;;;;28.98;24.73;;;;;;;2.43;100.00;98260.38;2105204;28;20317;-76
2021/01/05 04:55:42;;;;;;;31.08;24.17;;;;;;;2.41;100.00;98261.66;2105925;28;20214;-76
2021/01/05 04:56:51;;;;;;;24.92;22.40;;;;;;;2.40;100.00;98260.09;2105554;28;20225;-76
2021/01/05 04:57:59;;;;;;;28.67;24.40;;;;;;;2.36;100.00;98259.06;2105876;28;20221;-77
2021/01/05 04:59:01;;;;;;;29.23;24.58;;;;;;;2.35;100.00;98255.63;2095710;28;20248;-76
2021/01/05 05:00:06;;;;;;;28.63;25.42;;;;;;;2.38;100.00;98262.19;2096922;28;20284;-77
2021/01/05 05:01:16;;;;;;;28.02;25.13;;;;;;;2.38;100.00;98256.94;2097090;28;20694;-76
2021/01/05 05:02:24;;;;;;;29.20;26.20;;;;;;;2.45;100.00;98250.38;2096332;28;20230;-77
2021/01/05 05:03:48;;;;;;;28.70;25.85;;;;;;;2.54;100.00;98248.78;2089061;28;20300;-76
2021/01/05 05:04:55;;;;;;;30.33;27.13;;;;;;;2.53;100.00;98251.69;2105206;28;20217;-76
2021/01/05 05:06:11;;;;;;;32.78;27.67;;;;;;;2.52;100.00;98244.84;2097795;28;20230;-77
2021/01/05 05:07:18;;;;;;;29.00;26.00;;;;;;;2.48;100.00;98249.03;2098363;28;20241;-76
2021/01/05 05:08:37;;;;;;;28.08;24.98;;;;;;;2.42;100.00;98240.34;2097436;28;20230;-76
2021/01/05 05:09:45;;;;;;;28.90;26.08;;;;;;;2.50;100.00;98252.19;2104721;28;20656;-76
2021/01/05 05:10:49;;;;;;;30.98;27.08;;;;;;;2.41;100.00;98237.97;2104147;28;20217;-76
2021/01/05 05:12:13;;;;;;;30.25;27.05;;;;;;;2.46;100.00;98251.16;2105016;28;20751;-77
2021/01/05 05:13:18;;;;;;;30.20;27.27;;;;;;;2.50;100.00;98246.94;2081178;28;20222;-76
2021/01/05 05:14:24;;;;;;;29.30;26.48;;;;;;;2.50;100.00;98244.28;2092784;28;20214;-76
2021/01/05 05:15:36;;;;;;;30.02;26.58;;;;;;;2.49;100.00;98240.88;2096681;28;20275;-76
2021/01/05 05:16:46;;;;;;;30.00;27.00;;;;;;;2.50;100.00;98249.56;2097138;28;20226;-77
2021/01/05 05:18:12;;;;;;;29.05;25.98;;;;;;;2.49;100.00;98245.34;2096722;28;20218;-76
2021/01/05 05:19:24;;;;;;;29.50;26.33;;;;;;;2.46;100.00;98244.03;2103994;28;20600;-76
2021/01/05 05:20:34;;;;;;;29.83;26.70;;;;;;;2.45;100.00;98244.31;2105343;28;20221;-77
2021/01/05 05:21:38;;;;;;;29.17;25.77;;;;;;;2.43;100.00;98239.31;2105731;28;20722;-76